Time;durP1;ratioP1;P1;durP2;ratioP2;P2;SDS_P1;SDS_P2;PMS_P1;PMS_P2;Temp;Humidity;BMP_temperature;BMP_pressure;BME280_temperature;BME280_humidity;BME280_pressure;Samples;Min_cycle;Max_cycle;Signal;HPM_P1;HPM_P2
2021/11/27 00:00:08;;;;;;;0.52;0.45;;;4.90;99.90;;;;;;5053192;28;20025;-59
2021/11/27 00:02:34;;;;;;;0.50;0.50;;;4.90;99.90;;;;;;5059132;28;20442;-60
2021/11/27 00:04:59;;;;;;;0.70;0.70;;;4.90;99.90;;;;;;5053005;28;20060;-60
2021/11/27 00:07:25;;;;;;;0.70;0.70;;;5.00;99.90;;;;;;5053024;28;20025;-59
2021/11/27 00:09:51;;;;;;;0.63;0.60;;;4.80;99.90;;;;;;5035915;28;20064;-60
2021/11/27 00:12:17;;;;;;;0.60;0.60;;;4.80;99.90;;;;;;5053975;28;20452;-59
2021/11/27 00:14:45;;;;;;;0.57;0.50;;;4.80;99.90;;;;;;5053431;28;20028;-60
2021/11/27 00:17:13;;;;;;;0.80;0.80;;;4.80;99.90;;;;;;5054172;28;20040;-60
2021/11/27 00:19:39;;;;;;;0.95;0.70;;;4.70;99.90;;;;;;5054054;28;20057;-60
2021/11/27 00:22:07;;;;;;;0.82;0.80;;;4.80;99.90;;;;;;5057919;28;20115;-59
2021/11/27 00:24:35;;;;;;;0.85;0.73;;;4.70;99.90;;;;;;5054201;28;20375;-60
2021/11/27 00:27:03;;;;;;;1.40;0.90;;;4.60;99.90;;;;;;5053812;28;20037;-61
2021/11/27 00:29:28;;;;;;;1.23;0.73;;;4.60;99.90;;;;;;5054731;28;20043;-60
2021/11/27 00:31:54;;;;;;;0.70;0.70;;;4.50;99.90;;;;;;5057236;28;20415;-59
2021/11/27 00:34:22;;;;;;;1.00;0.70;;;4.50;99.90;;;;;;5036207;28;20116;-60
2021/11/27 00:36:48;;;;;;;1.75;0.98;;;4.50;99.90;;;;;;5053884;28;20025;-61
2021/11/27 00:39:17;;;;;;;2.63;0.95;;;4.50;99.90;;;;;;5036302;28;20469;-59
2021/11/27 00:41:43;;;;;;;0.95;0.95;;;4.60;99.90;;;;;;5053827;28;20411;-61
2021/11/27 00:44:09;;;;;;;0.77;0.77;;;4.50;99.90;;;;;;5053482;28;20315;-60
2021/11/27 00:46:37;;;;;;;0.80;0.80;;;4.50;99.90;;;;;;5053625;28;20047;-61
2021/11/27 00:49:04;;;;;;;1.15;0.80;;;4.60;99.90;;;;;;5053560;28;20090;-61
2021/11/27 00:51:30;;;;;;;1.08;0.90;;;4.50;99.90;;;;;;5053397;28;20029;-61
2021/11/27 00:53:57;;;;;;;1.95;0.90;;;4.50;99.90;;;;;;5051973;28;20112;-61
2021/11/27 00:56:23;;;;;;;1.48;1.02;;;4.50;99.90;;;;;;5050130;28;20021;-62
2021/11/27 00:58:51;;;;;;;1.25;0.98;;;4.50;99.90;;;;;;5052991;28;20029;-61
2021/11/27 01:01:27;;;;;;;0.85;0.70;;;4.50;99.90;;;;;;5035257;28;20495;-62
2021/11/27 01:03:54;;;;;;;2.08;0.80;;;4.60;99.90;;;;;;5052917;28;20041;-62
2021/11/27 01:06:22;;;;;;;0.93;0.88;;;4.50;99.90;;;;;;5052960;28;20039;-61
2021/11/27 01:08:50;;;;;;;1.65;0.77;;;4.50;99.90;;;;;;5052922;28;20029;-62
2021/11/27 01:11:19;;;;;;;1.45;0.80;;;4.50;99.90;;;;;;5052964;28;20033;-61
2021/11/27 01:13:48;;;;;;;1.20;0.90;;;4.50;99.90;;;;;;5052914;28;20206;-60
2021/11/27 01:16:19;;;;;;;0.70;0.70;;;4.60;99.90;;;;;;5052800;28;20029;-61
2021/11/27 01:18:47;;;;;;;0.90;0.90;;;4.60;99.90;;;;;;5052130;28;20021;-62
2021/11/27 01:21:16;;;;;;;0.95;0.90;;;4.60;99.90;;;;;;5053051;28;20315;-62
2021/11/27 01:23:44;;;;;;;1.10;0.98;;;4.60;99.90;;;;;;5034923;28;20430;-61
2021/11/27 01:26:10;;;;;;;0.98;0.93;;;4.60;99.90;;;;;;5051859;28;20052;-61
2021/11/27 01:28:38;;;;;;;0.80;0.70;;;4.60;99.90;;;;;;5052299;28;20025;-60
2021/11/27 01:31:06;;;;;;;0.80;0.80;;;4.60;99.90;;;;;;5056216;28;20029;-61
2021/11/27 01:33:33;;;;;;;0.70;0.70;;;4.70;99.90;;;;;;5052598;28;20325;-60
2021/11/27 01:36:00;;;;;;;0.70;0.60;;;4.70;99.90;;;;;;5052672;28;20048;-61
2021/11/27 01:38:27;;;;;;;1.85;1.00;;;4.60;99.90;;;;;;5052692;28;20036;-62
2021/11/27 01:40:55;;;;;;;11.90;2.65;;;4.60;99.90;;;;;;5035412;28;20295;-61
2021/11/27 01:43:24;;;;;;;1.50;0.70;;;4.70;99.90;;;;;;5052607;28;20029;-61
2021/11/27 01:45:51;;;;;;;0.73;0.70;;;4.70;99.90;;;;;;5052538;28;20028;-60
2021/11/27 01:48:18;;;;;;;1.08;0.70;;;4.70;99.90;;;;;;5052782;28;20116;-61
2021/11/27 01:50:51;;;;;;;0.82;0.70;;;4.80;99.90;;;;;;5052723;28;20032;-61
2021/11/27 01:53:18;;;;;;;0.60;0.60;;;4.80;99.90;;;;;;5052909;28;20036;-60
2021/11/27 01:55:46;;;;;;;0.73;0.73;;;4.80;99.90;;;;;;5047946;28;20040;-59
2021/11/27 01:58:12;;;;;;;1.42;0.65;;;4.70;99.90;;;;;;5034903;28;20025;-60
2021/11/27 02:00:44;;;;;;;1.15;0.82;;;4.80;99.90;;;;;;5053127;28;20036;-60
2021/11/27 02:03:10;;;;;;;0.88;0.60;;;4.80;99.90;;;;;;5054416;28;20028;-60
2021/11/27 02:05:35;;;;;;;1.20;0.90;;;4.80;99.90;;;;;;5034994;28;20025;-61
2021/11/27 02:08:03;;;;;;;1.88;0.73;;;4.80;99.90;;;;;;5052384;28;20437;-61
2021/11/27 02:10:32;;;;;;;0.68;0.68;;;4.80;99.90;;;;;;5052580;28;20040;-61
2021/11/27 02:13:01;;;;;;;0.57;0.57;;;4.80;99.90;;;;;;5045754;28;20085;-61
2021/11/27 02:15:27;;;;;;;0.68;0.68;;;4.90;99.90;;;;;;5030777;28;20034;-60
2021/11/27 02:17:53;;;;;;;0.52;0.52;;;4.80;99.90;;;;;;5049730;28;20021;-61
2021/11/27 02:20:19;;;;;;;0.82;0.70;;;4.80;99.90;;;;;;5052418;28;20021;-60
2021/11/27 02:22:45;;;;;;;1.15;0.80;;;4.80;99.90;;;;;;5052424;28;20032;-60
2021/11/27 02:25:16;;;;;;;0.85;0.80;;;4.70;99.90;;;;;;5034803;28;20116;-61
2021/11/27 02:27:47;;;;;;;1.38;1.10;;;4.70;99.90;;;;;;5052354;28;20108;-61
2021/11/27 02:30:14;;;;;;;;;;;4.80;99.90;;;;;;5054057;28;20029;-61
2021/11/27 02:32:40;;;;;;;0.60;0.60;;;4.80;99.90;;;;;;5048651;28;20264;-61
2021/11/27 02:35:09;;;;;;;0.60;0.60;;;4.80;99.90;;;;;;5052363;28;20021;-61
2021/11/27 02:37:36;;;;;;;2.75;1.08;;;4.80;99.90;;;;;;5052520;28;20033;-61
2021/11/27 02:40:05;;;;;;;1.05;0.68;;;4.70;99.90;;;;;;5056094;28;20017;-60
2021/11/27 02:42:31;;;;;;;1.08;0.98;;;4.70;99.90;;;;;;5055915;28;20110;-60
2021/11/27 02:44:57;;;;;;;0.98;0.90;;;4.70;99.90;;;;;;5055832;28;20056;-60
2021/11/27 02:47:25;;;;;;;1.58;1.05;;;4.80;99.90;;;;;;5055734;28;20067;-60
2021/11/27 02:49:53;;;;;;;0.95;0.95;;;4.70;99.90;;;;;;5055990;28;20061;-60
2021/11/27 02:52:20;;;;;;;1.10;0.80;;;4.80;99.90;;;;;;5037897;28;20508;-61
2021/11/27 02:54:48;;;;;;;0.63;0.63;;;4.90;99.90;;;;;;5055818;28;20112;-60
2021/11/27 02:57:16;;;;;;;0.82;0.70;;;4.90;99.90;;;;;;5055498;28;20017;-60
2021/11/27 02:59:44;;;;;;;0.60;0.60;;;4.80;99.90;;;;;;5038003;28;20072;-60
2021/11/27 03:02:11;;;;;;;0.70;0.60;;;4.80;99.90;;;;;;5056459;28;20036;-60
2021/11/27 03:04:37;;;;;;;0.57;0.57;;;4.80;99.90;;;;;;5055569;28;20025;-60
2021/11/27 03:07:05;;;;;;;1.63;0.90;;;4.80;99.90;;;;;;5055352;28;20029;-61
2021/11/27 03:09:31;;;;;;;1.83;1.17;;;4.80;99.90;;;;;;5055031;28;20036;-60
2021/11/27 03:12:00;;;;;;;6.53;1.10;;;4.70;99.90;;;;;;5055264;28;20048;-58
2021/11/27 03:14:30;;;;;;;1.70;1.20;;;4.70;99.90;;;;;;5053813;28;20036;-61
2021/11/27 03:16:56;;;;;;;1.75;1.45;;;4.80;99.90;;;;;;5050838;28;20021;-60
2021/11/27 03:19:22;;;;;;;1.55;1.23;;;4.80;99.90;;;;;;5055319;28;20032;-61
2021/11/27 03:21:48;;;;;;;3.00;1.20;;;4.80;99.90;;;;;;5055034;28;20045;-60
2021/11/27 03:24:15;;;;;;;0.80;0.77;;;4.70;99.90;;;;;;5055250;28;20140;-62
2021/11/27 03:26:43;;;;;;;0.82;0.70;;;4.70;99.90;;;;;;5055368;28;20032;-61
2021/11/27 03:29:09;;;;;;;2.45;1.35;;;4.50;99.90;;;;;;5037456;28;20399;-62
2021/11/27 03:31:35;;;;;;;3.33;1.70;;;4.50;99.90;;;;;;5059814;28;20062;-60
2021/11/27 03:34:01;;;;;;;3.35;2.42;;;4.50;99.90;;;;;;5054766;28;20434;-61
2021/11/27 03:36:27;;;;;;;2.75;2.10;;;4.40;99.90;;;;;;5048108;28;20112;-59
2021/11/27 03:38:53;;;;;;;3.63;2.58;;;4.30;99.90;;;;;;5048541;28;20025;-61
2021/11/27 03:41:19;;;;;;;2.75;1.63;;;4.30;99.90;;;;;;5055603;28;20052;-62
2021/11/27 03:43:45;;;;;;;3.50;1.90;;;4.30;99.90;;;;;;5055039;28;20300;-61
2021/11/27 03:46:11;;;;;;;1.88;1.50;;;4.20;99.90;;;;;;5054636;28;20139;-59
2021/11/27 03:48:41;;;;;;;1.73;1.63;;;4.10;99.90;;;;;;5048068;28;20039;-61
2021/11/27 03:51:14;;;;;;;2.05;1.73;;;4.00;99.90;;;;;;5036138;28;20028;-61
2021/11/27 03:53:41;;;;;;;2.42;2.00;;;4.00;99.90;;;;;;5054832;28;20021;-60
2021/11/27 03:56:11;;;;;;;2.78;2.30;;;4.00;99.90;;;;;;5054485;28;20404;-62
2021/11/27 03:58:37;;;;;;;2.37;2.00;;;4.10;99.90;;;;;;5048300;28;20554;-61
2021/11/27 04:01:05;;;;;;;3.38;2.42;;;4.10;99.90;;;;;;5055887;28;20278;-60
2021/11/27 04:03:31;;;;;;;2.40;2.20;;;4.10;99.90;;;;;;5054635;28;20181;-62
2021/11/27 04:06:01;;;;;;;3.22;2.45;;;4.10;99.90;;;;;;5036592;28;20033;-61
2021/11/27 04:08:27;;;;;;;4.18;2.35;;;4.10;99.90;;;;;;5054541;28;20040;-60
2021/11/27 04:10:53;;;;;;;3.03;2.47;;;4.10;99.90;;;;;;5036598;28;20037;-60
2021/11/27 04:13:20;;;;;;;3.15;2.50;;;4.20;99.90;;;;;;5047513;28;20319;-61
2021/11/27 04:15:49;;;;;;;2.85;2.35;;;4.30;99.90;;;;;;5054376;28;20025;-60
2021/11/27 04:18:15;;;;;;;3.08;2.63;;;4.30;99.90;;;;;;5053870;28;20021;-61
2021/11/27 04:20:42;;;;;;;3.33;2.28;;;4.30;99.90;;;;;;5047577;28;20123;-61
2021/11/27 04:23:08;;;;;;;2.85;2.50;;;4.30;99.90;;;;;;5054058;28;20029;-61
2021/11/27 04:25:34;;;;;;;4.53;2.65;;;4.30;99.90;;;;;;5036331;28;20421;-60
2021/11/27 04:27:59;;;;;;;3.85;2.97;;;4.30;99.90;;;;;;5054024;28;20052;-60
2021/11/27 04:30:28;;;;;;;4.45;3.47;;;4.20;99.90;;;;;;5056546;28;20102;-59
2021/11/27 04:32:56;;;;;;;2.70;2.47;;;4.30;99.90;;;;;;5055970;28;20056;-61
2021/11/27 04:35:25;;;;;;;3.88;2.92;;;4.30;99.90;;;;;;5053672;28;20029;-61
2021/11/27 04:37:52;;;;;;;3.67;2.80;;;4.30;99.90;;;;;;5053649;28;20013;-61
2021/11/27 04:40:18;;;;;;;4.18;2.95;;;4.30;99.90;;;;;;5053734;28;20569;-61
2021/11/27 04:42:46;;;;;;;5.28;2.90;;;4.30;99.90;;;;;;5053779;28;20061;-60
2021/11/27 04:45:14;;;;;;;4.72;3.38;;;4.30;99.90;;;;;;5053701;28;20021;-61
2021/11/27 04:47:41;;;;;;;4.05;3.22;;;4.30;99.90;;;;;;5036036;28;20086;-61
2021/11/27 04:50:10;;;;;;;7.60;3.20;;;4.30;99.90;;;;;;5053696;28;20056;-60
2021/11/27 04:52:37;;;;;;;3.85;3.05;;;4.30;99.90;;;;;;5053514;28;20091;-60
2021/11/27 04:55:07;;;;;;;5.05;3.50;;;4.20;99.90;;;;;;5053913;28;20021;-60
2021/11/27 04:57:36;;;;;;;7.25;3.80;;;4.30;99.90;;;;;;5053410;28;20025;-60
2021/11/27 05:00:03;;;;;;;5.35;3.83;;;4.30;99.90;;;;;;5053784;28;20017;-61
2021/11/27 05:02:31;;;;;;;6.00;3.97;;;4.20;99.90;;;;;;5055352;28;20329;-58
2021/11/27 05:04:57;;;;;;;7.68;3.47;;;4.20;99.90;;;;;;5035802;28;20037;-60
2021/11/27 05:07:22;;;;;;;7.13;3.80;;;4.20;99.90;;;;;;5053315;28;20112;-59
2021/11/27 05:09:50;;;;;;;4.47;3.42;;;4.20;99.90;;;;;;5053435;28;20033;-60
2021/11/27 05:12:18;;;;;;;5.35;3.55;;;4.20;99.90;;;;;;5035311;28;20037;-60
2021/11/27 05:14:43;;;;;;;5.45;3.80;;;4.20;99.90;;;;;;5053028;28;20090;-60
2021/11/27 05:17:09;;;;;;;7.32;3.67;;;4.10;99.90;;;;;;5035368;28;20033;-60
2021/11/27 05:19:38;;;;;;;6.60;3.45;;;4.00;99.90;;;;;;5029734;28;20055;-61
2021/11/27 05:22:03;;;;;;;4.22;3.30;;;4.00;99.90;;;;;;5052933;28;20059;-60
2021/11/27 05:24:31;;;;;;;8.25;3.33;;;4.10;99.90;;;;;;5052859;28;20104;-61
2021/11/27 05:26:57;;;;;;;4.20;3.55;;;4.00;99.90;;;;;;5052841;28;20017;-61
2021/11/27 05:29:23;;;;;;;7.88;3.78;;;4.00;99.90;;;;;;5052699;28;20021;-60
2021/11/27 05:31:53;;;;;;;6.68;3.70;;;4.00;99.90;;;;;;5058144;28;20038;-61
2021/11/27 05:36:50;;;;;;;4.70;3.53;;;4.10;99.90;;;;;;5052899;28;20108;-61
2021/11/27 05:39:18;;;;;;;6.85;3.90;;;4.10;99.90;;;;;;5052859;28;20071;-61
2021/11/27 05:41:46;;;;;;;7.88;3.70;;;4.10;99.90;;;;;;5052622;28;20017;-61
2021/11/27 05:44:12;;;;;;;6.00;3.95;;;4.10;99.90;;;;;;5052558;28;20029;-62
2021/11/27 05:46:37;;;;;;;5.07;3.40;;;4.00;99.90;;;;;;5052674;28;20031;-61
2021/11/27 05:49:03;;;;;;;6.28;4.15;;;4.00;99.90;;;;;;5052559;28;20109;-61
2021/11/27 05:51:31;;;;;;;5.63;3.97;;;3.90;99.90;;;;;;5052400;28;20040;-60
2021/11/27 05:53:57;;;;;;;6.00;3.67;;;3.90;99.90;;;;;;5052608;28;20057;-61
2021/11/27 05:56:26;;;;;;;6.60;3.92;;;3.80;99.90;;;;;;5052347;28;20033;-59
2021/11/27 05:58:52;;;;;;;7.15;4.53;;;3.80;99.90;;;;;;5052799;28;20025;-62
2021/11/27 06:01:20;;;;;;;8.88;4.20;;;3.70;99.90;;;;;;5054822;28;20017;-60
2021/11/27 06:03:45;;;;;;;8.90;4.85;;;3.60;99.90;;;;;;5035078;28;20078;-61
2021/11/27 06:06:11;;;;;;;7.97;4.68;;;3.50;99.90;;;;;;5052561;28;20138;-60
2021/11/27 06:08:39;;;;;;;10.65;5.07;;;3.40;99.90;;;;;;5052681;28;20029;-59
2021/11/27 06:11:05;;;;;;;9.20;4.85;;;3.40;99.90;;;;;;5055125;28;20122;-58
2021/11/27 06:13:30;;;;;;;8.13;5.40;;;3.30;99.90;;;;;;5054410;28;20075;-60
2021/11/27 06:15:56;;;;;;;10.23;5.28;;;3.10;99.90;;;;;;5056448;28;20440;-61
2021/11/27 06:18:21;;;;;;;10.00;4.90;;;2.90;99.90;;;;;;5056721;28;20297;-59
2021/11/27 06:20:47;;;;;;;7.70;5.65;;;2.90;99.90;;;;;;5038790;28;20464;-61
2021/11/27 06:23:14;;;;;;;10.65;6.00;;;2.80;99.90;;;;;;5056373;28;20029;-60
2021/11/27 06:25:39;;;;;;;9.05;5.63;;;2.70;99.90;;;;;;5053056;28;20029;-60
2021/11/27 06:28:08;;;;;;;8.32;5.25;;;2.60;99.90;;;;;;5056319;28;20051;-61
2021/11/27 06:30:35;;;;;;;10.95;6.05;;;2.50;99.90;;;;;;5060267;28;20036;-59
2021/11/27 06:33:03;;;;;;;11.75;5.85;;;2.40;99.90;;;;;;5057674;28;20032;-61
2021/11/27 06:35:31;;;;;;;9.52;7.22;;;2.30;99.90;;;;;;5056382;28;20079;-60
2021/11/27 06:37:57;;;;;;;15.23;6.95;;;2.30;99.90;;;;;;5049719;28;20040;-61
2021/11/27 06:40:25;;;;;;;10.05;6.20;;;2.20;99.90;;;;;;5056279;28;20420;-61
2021/11/27 06:42:50;;;;;;;10.60;6.15;;;2.20;99.90;;;;;;5038380;28;20041;-62
2021/11/27 06:45:18;;;;;;;10.88;6.82;;;2.10;99.90;;;;;;5056070;28;20055;-62
2021/11/27 06:47:46;;;;;;;11.02;6.95;;;2.10;99.90;;;;;;5055995;28;20322;-61
2021/11/27 06:50:14;;;;;;;11.88;6.88;;;2.30;99.90;;;;;;5049325;28;20020;-61
2021/11/27 06:52:39;;;;;;;14.05;7.22;;;2.40;99.90;;;;;;5055989;28;20025;-62
2021/11/27 06:55:05;;;;;;;11.07;7.43;;;2.50;99.90;;;;;;5055961;28;20422;-62
2021/11/27 06:57:33;;;;;;;11.07;7.25;;;2.60;99.90;;;;;;5055969;28;20100;-61
2021/11/27 07:00:01;;;;;;;11.13;7.35;;;2.80;99.90;;;;;;5055861;28;20021;-61
2021/11/27 07:02:27;;;;;;;16.23;7.32;;;2.80;99.90;;;;;;5058340;28;20434;-60
2021/11/27 07:04:52;;;;;;;14.15;6.90;;;3.00;99.90;;;;;;5055614;28;20128;-62
2021/11/27 07:07:18;;;;;;;13.23;7.32;;;3.00;99.90;;;;;;5055575;28;20108;-60
2021/11/27 07:09:44;;;;;;;10.82;6.47;;;3.10;99.90;;;;;;5055337;28;20033;-61
2021/11/27 07:12:10;;;;;;;11.68;6.57;;;3.10;99.90;;;;;;5055368;28;20031;-62
2021/11/27 07:14:35;;;;;;;10.43;6.20;;;3.30;99.90;;;;;;5055366;28;20096;-62
2021/11/27 07:17:01;;;;;;;12.82;6.53;;;3.30;99.90;;;;;;5037799;28;20028;-61
2021/11/27 07:19:27;;;;;;;12.65;7.05;;;3.30;99.90;;;;;;5055471;28;20438;-61
2021/11/27 07:21:52;;;;;;;9.75;6.25;;;3.40;99.90;;;;;;5037789;28;20025;-61
2021/11/27 07:24:20;;;;;;;11.68;6.72;;;3.40;99.90;;;;;;5054101;28;20029;-60
2021/11/27 07:26:46;;;;;;;9.77;6.32;;;3.30;99.90;;;;;;5037663;28;20041;-60
2021/11/27 07:29:12;;;;;;;10.50;6.20;;;3.40;99.90;;;;;;5055378;28;20033;-59
2021/11/27 07:31:39;;;;;;;10.57;6.80;;;3.40;99.90;;;;;;5043685;28;20118;-60
2021/11/27 07:34:05;;;;;;;9.60;6.32;;;3.40;99.90;;;;;;5055830;28;20029;-61
2021/11/27 07:36:31;;;;;;;9.68;6.75;;;3.50;99.90;;;;;;5055694;28;20433;-62
2021/11/27 07:38:56;;;;;;;11.32;6.15;;;3.60;99.90;;;;;;5048788;28;20034;-62
2021/11/27 07:41:22;;;;;;;14.20;7.28;;;3.60;99.90;;;;;;5055311;28;20036;-61
2021/11/27 07:43:51;;;;;;;10.48;6.18;;;3.50;99.90;;;;;;5055100;28;20319;-60
2021/11/27 07:46:21;;;;;;;13.75;7.20;;;3.50;99.90;;;;;;5055223;28;20025;-61
2021/11/27 07:48:47;;;;;;;15.10;7.82;;;3.60;99.90;;;;;;5059076;28;20139;-62
2021/11/27 07:51:14;;;;;;;11.15;7.43;;;3.50;99.90;;;;;;5055961;28;20051;-61
2021/11/27 07:53:41;;;;;;;10.90;6.88;;;3.50;99.90;;;;;;5055124;28;20032;-62
2021/11/27 07:56:10;;;;;;;10.73;6.90;;;3.50;99.90;;;;;;5049240;28;20153;-61
2021/11/27 07:58:35;;;;;;;10.07;6.35;;;3.50;99.90;;;;;;5053838;28;20081;-60
2021/11/27 08:01:01;;;;;;;11.23;6.80;;;3.50;99.90;;;;;;5057154;28;20120;-61
2021/11/27 08:03:29;;;;;;;10.18;5.97;;;3.50;99.90;;;;;;5054802;28;20113;-61
2021/11/27 08:05:57;;;;;;;10.77;6.43;;;3.40;99.90;;;;;;5054603;28;20386;-61
2021/11/27 08:08:23;;;;;;;8.23;5.22;;;3.40;99.90;;;;;;5054437;28;20071;-61
2021/11/27 08:10:49;;;;;;;8.18;5.25;;;3.40;99.90;;;;;;5054313;28;20060;-62
2021/11/27 08:13:17;;;;;;;7.82;5.13;;;3.40;99.90;;;;;;5054100;28;20047;-61
2021/11/27 08:15:42;;;;;;;7.63;5.10;;;3.40;99.90;;;;;;5054052;28;20039;-60
2021/11/27 08:18:08;;;;;;;10.48;5.20;;;3.30;99.90;;;;;;5049733;28;20029;-60
2021/11/27 08:20:36;;;;;;;9.88;6.43;;;3.30;99.90;;;;;;5054429;28;20029;-61
2021/11/27 08:23:05;;;;;;;8.93;5.68;;;3.30;99.90;;;;;;5054193;28;20029;-61
2021/11/27 08:25:32;;;;;;;10.27;5.30;;;3.30;99.90;;;;;;5049687;28;20033;-60
2021/11/27 08:27:58;;;;;;;11.40;5.72;;;3.30;99.90;;;;;;5054272;28;20013;-61
2021/11/27 08:30:27;;;;;;;8.10;5.38;;;3.40;99.90;;;;;;5056755;28;20032;-61
2021/11/27 08:32:54;;;;;;;8.23;4.93;;;3.40;99.90;;;;;;5057493;28;20041;-61
2021/11/27 08:35:19;;;;;;;6.25;4.40;;;3.50;99.90;;;;;;5053940;28;20025;-61
2021/11/27 08:37:45;;;;;;;6.78;4.40;;;3.60;99.90;;;;;;5054004;28;20350;-60
2021/11/27 08:40:11;;;;;;;7.20;4.90;;;3.60;99.90;;;;;;5036400;28;20025;-61
2021/11/27 08:42:42;;;;;;;8.60;4.32;;;3.50;99.90;;;;;;5054052;28;20047;-60
2021/11/27 08:45:09;;;;;;;11.50;5.60;;;3.40;99.90;;;;;;5054124;28;20395;-60
2021/11/27 08:47:34;;;;;;;7.82;5.00;;;3.30;99.90;;;;;;5053877;28;20137;-61
2021/11/27 08:50:04;;;;;;;9.70;5.63;;;3.40;99.90;;;;;;5036371;28;20157;-61
2021/11/27 08:52:29;;;;;;;9.95;4.72;;;3.40;99.90;;;;;;5053787;28;20107;-61
2021/11/27 08:54:57;;;;;;;8.10;4.60;;;3.50;99.90;;;;;;5034897;28;20121;-62
2021/11/27 08:57:23;;;;;;;7.80;4.78;;;3.70;99.90;;;;;;5053747;28;20339;-61
2021/11/27 08:59:49;;;;;;;7.65;4.13;;;3.80;99.90;;;;;;5053472;28;20029;-60
2021/11/27 09:02:21;;;;;;;7.43;5.07;;;3.90;99.90;;;;;;5039129;28;20021;-60
2021/11/27 09:04:47;;;;;;;8.30;4.88;;;4.20;99.90;;;;;;5050920;28;20438;-60
2021/11/27 09:07:12;;;;;;;6.40;3.90;;;4.50;99.90;;;;;;5052561;28;20079;-59
2021/11/27 09:09:38;;;;;;;6.55;4.07;;;4.60;99.90;;;;;;5052551;28;20111;-60
2021/11/27 09:12:07;;;;;;;6.85;4.18;;;4.70;99.90;;;;;;5053381;28;20048;-61
2021/11/27 09:14:38;;;;;;;7.13;3.70;;;4.80;99.90;;;;;;5049887;28;20052;-57
2021/11/27 09:17:05;;;;;;;6.80;4.00;;;4.80;99.90;;;;;;5050826;28;20060;-61
2021/11/27 09:19:33;;;;;;;6.78;3.58;;;5.00;99.90;;;;;;5053097;28;20110;-61
2021/11/27 09:21:59;;;;;;;7.65;3.42;;;5.10;99.90;;;;;;5034995;28;20029;-61
2021/11/27 09:24:24;;;;;;;5.13;3.30;;;5.10;99.90;;;;;;5047741;28;20078;-61
2021/11/27 09:26:51;;;;;;;8.48;3.80;;;5.00;99.90;;;;;;5024792;28;20048;-62
2021/11/27 09:29:20;;;;;;;5.30;3.45;;;5.10;99.90;;;;;;5035550;28;20036;-62
2021/11/27 09:31:46;;;;;;;8.10;4.35;;;5.10;99.90;;;;;;5053296;28;20028;-59
2021/11/27 09:34:12;;;;;;;7.10;4.00;;;5.20;99.90;;;;;;5049680;28;20045;-63
2021/11/27 09:36:39;;;;;;;12.70;5.80;;;5.10;99.90;;;;;;5047990;28;20075;-61
2021/11/27 09:39:10;;;;;;;13.75;7.43;;;5.10;99.90;;;;;;5053159;28;20013;-62
2021/11/27 09:41:39;;;;;;;14.00;7.60;;;5.20;99.90;;;;;;5032322;28;20021;-63
2021/11/27 09:44:05;;;;;;;17.50;7.50;;;5.10;99.90;;;;;;5049589;28;20124;-59
2021/11/27 09:46:34;;;;;;;9.70;6.25;;;5.10;99.90;;;;;;5050385;28;20059;-63
2021/11/27 09:49:12;;;;;;;11.65;5.50;;;5.20;99.90;;;;;;5052175;28;20095;-61
2021/11/27 09:51:39;;;;;;;9.65;6.28;;;5.30;99.90;;;;;;5053292;28;20430;-63
2021/11/27 09:54:07;;;;;;;10.02;4.75;;;5.60;99.90;;;;;;5053040;28;20029;-61
2021/11/27 09:56:33;;;;;;;9.82;5.13;;;5.70;99.90;;;;;;5053307;28;20020;-62
2021/11/27 09:59:01;;;;;;;8.90;5.43;;;5.70;99.90;;;;;;5053466;28;20029;-61
2021/11/27 10:01:32;;;;;;;8.32;5.30;;;6.00;99.90;;;;;;5056380;28;20024;-62
2021/11/27 10:04:01;;;;;;;12.65;4.22;;;6.10;99.90;;;;;;5053091;28;20136;-64
2021/11/27 10:06:29;;;;;;;8.93;3.58;;;6.30;99.90;;;;;;5053112;28;20094;-63
2021/11/27 10:08:56;;;;;;;3.38;2.75;;;6.40;99.90;;;;;;5053300;28;20098;-66
2021/11/27 10:11:21;;;;;;;6.95;2.97;;;6.50;99.90;;;;;;5053099;28;20036;-62
2021/11/27 10:13:47;;;;;;;3.72;2.90;;;6.50;99.90;;;;;;5052928;28;20033;-62
2021/11/27 10:16:15;;;;;;;4.90;3.03;;;6.40;99.90;;;;;;5052901;28;20029;-67
2021/11/27 10:19:01;;;;;;;4.60;3.42;;;6.40;99.90;;;;;;5059206;28;20051;-66
2021/11/27 10:21:26;;;;;;;7.03;4.03;;;6.50;99.90;;;;;;5053227;28;20098;-64
2021/11/27 10:23:53;;;;;;;6.18;3.75;;;6.40;99.90;;;;;;5052960;28;20502;-62
2021/11/27 10:26:33;;;;;;;9.45;4.35;;;6.50;99.90;;;;;;5053122;28;20429;-62
2021/11/27 10:29:36;;;;;;;5.90;3.75;;;6.50;99.90;;;;;;5052955;28;20493;-62
2021/11/27 10:32:19;;;;;;;7.03;3.78;;;6.60;99.90;;;;;;5002104;28;20080;-62
2021/11/27 10:34:50;;;;;;;6.80;3.92;;;6.70;99.90;;;;;;5052626;28;20292;-64
2021/11/27 10:37:25;;;;;;;7.53;3.90;;;6.70;99.90;;;;;;5052942;28;20020;-64
2021/11/27 10:40:09;;;;;;;6.63;3.92;;;6.80;99.90;;;;;;5052547;28;20099;-68
2021/11/27 10:42:36;;;;;;;11.38;5.20;;;6.80;99.90;;;;;;5029704;28;20405;-67
2021/11/27 10:45:11;;;;;;;8.25;4.50;;;7.00;99.90;;;;;;5034712;28;20067;-63
2021/11/27 10:47:40;;;;;;;9.55;5.07;;;7.00;99.90;;;;;;5046110;28;20490;-64
2021/11/27 10:50:08;;;;;;;9.73;5.22;;;7.20;99.90;;;;;;5052726;28;20024;-65
2021/11/27 10:52:37;;;;;;;10.23;5.50;;;7.00;99.90;;;;;;5052687;28;20025;-63
2021/11/27 10:55:26;;;;;;;9.25;5.72;;;7.00;99.90;;;;;;5052497;28;20091;-64
2021/11/27 10:57:58;;;;;;;8.73;4.35;;;7.00;99.90;;;;;;5052565;28;20521;-63
2021/11/27 11:00:45;;;;;;;8.57;4.35;;;7.00;99.90;;;;;;5057744;28;20079;-64
2021/11/27 11:03:30;;;;;;;7.60;4.88;;;7.00;99.90;;;;;;5032899;28;20029;-60
2021/11/27 11:06:00;;;;;;;9.10;4.60;;;7.00;99.90;;;;;;5055793;28;20017;-59
2021/11/27 11:08:37;;;;;;;10.23;5.68;;;7.00;99.90;;;;;;5056006;28;20055;-62
2021/11/27 11:11:24;;;;;;;13.15;4.72;;;7.10;99.90;;;;;;5055976;28;20481;-63
2021/11/27 11:13:55;;;;;;;8.60;4.70;;;7.30;99.90;;;;;;5049960;28;20033;-64
2021/11/27 11:16:26;;;;;;;10.65;4.72;;;7.50;99.90;;;;;;5055929;28;20331;-61
2021/11/27 11:19:10;;;;;;;9.48;3.90;;;7.60;99.90;;;;;;5055590;28;20029;-63
2021/11/27 11:21:35;;;;;;;8.38;4.40;;;7.50;99.90;;;;;;5037519;28;20398;-62
2021/11/27 11:24:22;;;;;;;6.95;4.15;;;7.30;99.90;;;;;;5037875;28;20119;-63
2021/11/27 11:26:59;;;;;;;15.10;6.18;;;7.20;99.90;;;;;;5055671;28;20415;-61
2021/11/27 11:29:43;;;;;;;11.73;4.80;;;7.10;99.90;;;;;;5049398;28;20089;-62
2021/11/27 11:32:23;;;;;;;8.98;4.88;;;7.60;99.90;;;;;;5050787;28;20108;-59
2021/11/27 11:34:55;;;;;;;10.38;4.32;;;8.70;99.60;;;;;;5055404;28;20029;-61
2021/11/27 11:37:24;;;;;;;8.60;4.63;;;9.50;98.60;;;;;;5055479;28;20082;-62
2021/11/27 11:39:51;;;;;;;5.80;3.30;;;9.90;97.10;;;;;;5055221;28;20362;-62
2021/11/27 11:42:17;;;;;;;7.97;4.00;;;10.00;97.70;;;;;;5048414;28;20017;-62
2021/11/27 11:44:46;;;;;;;11.63;3.60;;;9.90;96.80;;;;;;5055248;28;20087;-61
2021/11/27 11:47:14;;;;;;;8.90;3.95;;;9.50;97.40;;;;;;5055001;28;20032;-63
2021/11/27 11:49:41;;;;;;;8.82;3.58;;;9.00;97.90;;;;;;5055529;28;20104;-58
2021/11/27 11:52:25;;;;;;;5.93;2.78;;;8.80;98.00;;;;;;5055319;28;20036;-59
2021/11/27 11:54:57;;;;;;;6.57;3.42;;;8.40;98.20;;;;;;5055112;28;20021;-62
2021/11/27 11:57:39;;;;;;;7.75;3.60;;;8.50;98.80;;;;;;5055099;28;20346;-61
2021/11/27 12:00:30;;;;;;;10.52;3.33;;;8.40;99.10;;;;;;5037321;28;20025;-60
2021/11/27 12:03:10;;;;;;;6.00;4.13;;;8.30;99.30;;;;;;5036214;28;20117;-60
2021/11/27 12:06:12;;;;;;;9.55;3.90;;;8.30;99.20;;;;;;5048763;28;20025;-62
2021/11/27 12:08:49;;;;;;;5.50;3.47;;;8.50;99.70;;;;;;4954619;29;20111;-61
2021/11/27 12:11:42;;;;;;;8.80;3.55;;;8.60;99.90;;;;;;5042310;28;20037;-62
2021/11/27 12:14:23;;;;;;;8.52;3.00;;;8.80;98.30;;;;;;5051027;28;20083;-62
2021/11/27 12:17:07;;;;;;;6.63;3.35;;;9.50;97.80;;;;;;5054553;28;20020;-67
2021/11/27 12:19:37;;;;;;;10.15;4.28;;;10.60;95.90;;;;;;5054145;28;20414;-61
2021/11/27 12:22:31;;;;;;;8.60;3.20;;;11.50;94.30;;;;;;5053568;28;20025;-62
2021/11/27 12:25:12;;;;;;;12.02;4.07;;;11.20;94.70;;;;;;5031378;28;20291;-63
2021/11/27 12:27:59;;;;;;;7.05;3.60;;;10.90;94.60;;;;;;5054758;28;20394;-62
2021/11/27 12:30:29;;;;;;;7.82;3.45;;;10.20;95.90;;;;;;5048487;28;20091;-63
2021/11/27 12:32:54;;;;;;;8.23;3.05;;;10.10;96.40;;;;;;5054702;28;20025;-64
2021/11/27 12:35:26;;;;;;;14.20;4.55;;;10.00;96.10;;;;;;5036754;28;20017;-63
2021/11/27 12:38:15;;;;;;;7.93;3.10;;;9.80;96.70;;;;;;5054412;28;20032;-61
2021/11/27 12:40:48;;;;;;;8.88;2.72;;;9.30;97.00;;;;;;5054219;28;20025;-62
2021/11/27 12:43:18;;;;;;;7.78;3.05;;;8.80;98.40;;;;;;5054464;28;20021;-63
2021/11/27 12:45:47;;;;;;;4.53;3.05;;;8.60;98.40;;;;;;5054375;28;20418;-63
2021/11/27 12:48:31;;;;;;;5.25;2.88;;;8.50;99.10;;;;;;5036345;28;20094;-59
2021/11/27 12:51:16;;;;;;;9.93;2.80;;;8.80;98.50;;;;;;5036320;28;20025;-63
2021/11/27 12:54:03;;;;;;;5.95;3.13;;;;;;;;;;5054230;28;20033;-62
2021/11/27 12:56:54;;;;;;;5.72;3.22;;;9.70;97.70;;;;;;5054220;28;20083;-62
2021/11/27 12:59:24;;;;;;;11.05;3.03;;;9.80;96.90;;;;;;5054076;28;20024;-62
2021/11/27 13:01:54;;;;;;;7.88;2.72;;;9.60;96.90;;;;;;5057595;28;20090;-63
2021/11/27 13:04:30;;;;;;;10.63;3.20;;;9.60;96.90;;;;;;5054058;28;20033;-63
2021/11/27 13:06:56;;;;;;;8.38;3.10;;;9.40;96.90;;;;;;5054418;28;20100;-63